createdAt,value
2019-04-26T09:35:30.009Z,101161.25
2019-04-26T09:38:20.750Z,101164.12
2019-04-26T09:41:15.054Z,101161.28
2019-04-26T09:44:14.156Z,101162.70
2019-04-26T09:47:30.189Z,101159.89
2019-04-26T09:50:38.437Z,101156.53
2019-04-26T09:53:29.050Z,101151.20
2019-04-26T09:56:19.925Z,101150.83
2019-04-26T09:59:10.640Z,101141.83
2019-04-26T10:02:01.542Z,101125.63
2019-04-26T10:04:52.592Z,101137.23
2019-04-26T10:07:43.440Z,101135.48
2019-04-26T10:10:35.396Z,101123.56
2019-04-26T10:13:51.402Z,101127.27
2019-04-26T10:16:48.972Z,101128.16
2019-04-26T10:19:50.380Z,101119.42
2019-04-26T10:22:40.700Z,101121.58
2019-04-26T10:25:30.878Z,101115.14
2019-04-26T10:28:22.670Z,101112.27
2019-04-26T10:31:13.558Z,101106.03
2019-04-26T10:34:07.645Z,101105.07
2019-04-26T10:36:57.071Z,101100.48
2019-04-26T10:39:47.711Z,101103.21
2019-04-26T10:42:38.305Z,101102.67
2019-04-26T10:45:28.877Z,101079.88
2019-04-26T10:48:23.104Z,101101.16
2019-04-26T10:51:14.177Z,101094.90
2019-04-26T10:54:10.939Z,101102.55
2019-04-26T10:57:06.331Z,101093.34
2019-04-26T10:59:59.701Z,101096.41
2019-04-26T11:02:52.171Z,101097.18
2019-04-26T11:05:42.524Z,101099.55
2019-04-26T11:08:33.176Z,101100.77
2019-04-26T11:11:23.178Z,101096.55
2019-04-26T11:14:13.548Z,101076.48
2019-04-26T11:17:04.708Z,101099.73
2019-04-26T11:19:55.468Z,101091.05
2019-04-26T11:22:46.328Z,101092.38
2019-04-26T11:28:26.088Z,101085.73
2019-04-26T11:31:16.158Z,101080.47
2019-04-26T11:34:07.971Z,101081.69
2019-04-26T11:36:59.086Z,101084.23
2019-04-26T11:39:49.140Z,101082.88
2019-04-26T11:42:41.909Z,101083.08
2019-04-26T11:45:32.034Z,101078.14
2019-04-26T11:48:25.395Z,101082.58
2019-04-26T11:51:14.119Z,101074.73
2019-04-26T11:54:04.149Z,101065.59
2019-04-26T11:56:54.436Z,101066.59
2019-04-26T11:59:44.754Z,101060.45
2019-04-26T12:02:38.733Z,101060.64
2019-04-26T12:05:36.415Z,101058.47
2019-04-26T12:08:32.972Z,101050.11
2019-04-26T12:11:31.371Z,101049.94
2019-04-26T12:14:20.298Z,101043.99
2019-04-26T12:17:07.435Z,101034.97
2019-04-26T12:19:57.435Z,101041.64
2019-04-26T12:22:47.551Z,101036.83
2019-04-26T12:25:38.734Z,101027.14
2019-04-26T12:28:29.273Z,101025.47
2019-04-26T12:31:19.381Z,101027.83
2019-04-26T12:34:09.720Z,101021.03
2019-04-26T12:36:59.884Z,101013.19
2019-04-26T12:39:50.312Z,101012.02
2019-04-26T12:42:43.452Z,101006.37
2019-04-26T12:45:51.528Z,100995.17
2019-04-26T12:48:45.992Z,100992.28
2019-04-26T12:51:34.602Z,100984.12
2019-04-26T12:54:24.907Z,100978.52
2019-04-26T12:57:16.359Z,100973.09
2019-04-26T13:00:07.109Z,100970.38
2019-04-26T13:03:01.253Z,100965.61
2019-04-26T13:05:57.656Z,100965.61
2019-04-26T13:08:43.422Z,100965.25
2019-04-26T13:11:56.428Z,100954.72
2019-04-26T13:14:58.117Z,100949.95
2019-04-26T13:17:52.913Z,100948.77
2019-04-26T13:20:42.947Z,100948.74
2019-04-26T13:23:33.208Z,100943.14
2019-04-26T13:26:23.709Z,100937.05
2019-04-26T13:29:15.060Z,100934.83
2019-04-26T13:32:05.380Z,100932.97
2019-04-26T13:34:55.575Z,100934.14
2019-04-26T13:37:45.921Z,100928.16
2019-04-26T13:40:36.114Z,100928.22
2019-04-26T13:43:28.468Z,100919.38
2019-04-26T13:46:38.273Z,100922.39
2019-04-26T13:49:41.945Z,100910.84
2019-04-26T13:52:32.050Z,100913.55
2019-04-26T13:55:25.346Z,100898.47
2019-04-26T13:58:15.323Z,100900.97
2019-04-26T14:01:06.313Z,100875.15
2019-04-26T14:03:56.735Z,100892.48
2019-04-26T14:06:47.478Z,100899.66
2019-04-26T14:09:37.841Z,100901.34
2019-04-26T14:12:28.882Z,100893.87
2019-04-26T14:15:19.201Z,100896.41
2019-04-26T14:18:09.413Z,100894.32
2019-04-26T14:21:00.181Z,100889.94
2019-04-26T14:24:08.713Z,100889.76
2019-04-26T14:27:01.667Z,100887.72
2019-04-26T14:29:51.741Z,100883.79
2019-04-26T14:32:42.692Z,100885.00
2019-04-26T14:35:33.234Z,100881.24
2019-04-26T14:38:28.003Z,100885.68
2019-04-26T14:41:22.005Z,100888.88
2019-04-26T14:44:15.470Z,100885.66
2019-04-26T14:46:58.705Z,100885.45
2019-04-26T14:49:48.952Z,100884.63
2019-04-26T14:52:39.594Z,100881.22
2019-04-26T14:55:30.065Z,100877.78
2019-04-26T14:58:25.378Z,100878.11
2019-04-26T15:01:19.517Z,100881.52
2019-04-26T15:04:29.153Z,100880.54
2019-04-26T15:07:19.266Z,100883.73
2019-04-26T15:10:10.947Z,100875.42
2019-04-26T15:13:14.332Z,100878.17
2019-04-26T15:15:53.731Z,100874.73
2019-04-26T15:18:43.906Z,100873.91
2019-04-26T15:21:34.565Z,100873.44
2019-04-26T15:24:25.964Z,100870.01
2019-04-26T15:27:16.371Z,100868.65
2019-04-26T15:30:06.904Z,100869.36
2019-04-26T15:32:57.305Z,100866.28
2019-04-26T15:35:48.803Z,100847.27
2019-04-26T15:38:44.324Z,100866.30
2019-04-26T15:41:54.565Z,100861.94
2019-04-26T15:45:06.806Z,100854.61
2019-04-26T15:48:16.171Z,100855.45
2019-04-26T15:51:07.110Z,100845.62
2019-04-26T15:53:57.415Z,100846.94
2019-04-26T15:56:49.283Z,100842.88
2019-04-26T15:59:39.565Z,100850.18
2019-04-26T16:02:29.744Z,100845.09
2019-04-26T16:05:24.361Z,100842.53
2019-04-26T16:08:13.070Z,100839.98
2019-04-26T16:11:03.594Z,100840.16
2019-04-26T16:13:55.638Z,100843.20
2019-04-26T16:16:45.944Z,100838.47
2019-04-26T16:19:36.471Z,100840.50
2019-04-26T16:22:29.999Z,100843.52
2019-04-26T16:25:19.081Z,100833.02
2019-04-26T16:28:27.191Z,100829.39
2019-04-26T16:31:42.203Z,100826.80
2019-04-26T16:34:30.122Z,100829.16
2019-04-26T16:37:22.027Z,100831.19
2019-04-26T16:40:13.886Z,100831.19
2019-04-26T16:43:04.284Z,100832.84
2019-04-26T16:45:54.651Z,100839.95
2019-04-26T16:48:44.973Z,100839.64
2019-04-26T16:51:35.468Z,100840.03
2019-04-26T16:54:26.726Z,100839.69
2019-04-26T16:57:16.934Z,100839.48
2019-04-26T17:00:07.093Z,100837.23
2019-04-26T17:03:02.499Z,100835.46
2019-04-26T17:05:58.383Z,100837.13
2019-04-26T17:08:49.244Z,100835.08
2019-04-26T17:11:35.683Z,100838.45
2019-04-26T17:14:24.699Z,100835.41
2019-04-26T17:17:15.935Z,100839.80
2019-04-26T17:20:10.742Z,100841.09
2019-04-26T17:23:07.122Z,100839.01
2019-04-26T17:26:17.830Z,100836.83
2019-04-26T17:29:07.749Z,100836.09
2019-04-26T17:31:58.126Z,100829.23
2019-04-26T17:34:48.335Z,100839.02
2019-04-26T17:37:38.617Z,100844.89
2019-04-26T17:40:30.144Z,100842.43
2019-04-26T17:43:21.219Z,100841.56
2019-04-26T17:46:14.555Z,100843.54
2019-04-26T17:49:03.267Z,100857.00
2019-04-26T17:51:58.065Z,100849.53
2019-04-26T17:54:49.614Z,100846.00
2019-04-26T17:57:43.594Z,100858.44
2019-04-26T18:00:45.336Z,100850.96
2019-04-26T18:03:22.928Z,100867.64
2019-04-26T18:06:14.043Z,100865.27
2019-04-26T18:09:05.157Z,100874.58
2019-04-26T18:12:01.688Z,100880.91
2019-04-26T18:14:48.408Z,100881.58
2019-04-26T18:17:56.718Z,100892.41
2019-04-26T18:21:20.398Z,100889.42
2019-04-26T18:24:09.816Z,100882.09
2019-04-26T18:27:03.513Z,100883.82
2019-04-26T18:29:53.820Z,100886.78
2019-04-26T18:32:47.855Z,100890.59
2019-04-26T18:35:35.775Z,100892.65
2019-04-26T18:38:26.131Z,100893.91
2019-04-26T18:41:17.602Z,100897.58
2019-04-26T18:44:08.173Z,100898.02
2019-04-26T18:47:26.245Z,100903.28
2019-04-26T18:50:13.590Z,100904.47
2019-04-26T18:53:21.915Z,100897.16
2019-04-26T18:56:12.799Z,100897.33
2019-04-26T18:59:07.268Z,100901.98
2019-04-26T19:01:56.063Z,100902.67
2019-04-26T19:04:49.685Z,100911.84
2019-04-26T19:07:40.056Z,100900.67
2019-04-26T19:10:34.135Z,100905.45
2019-04-26T19:13:42.870Z,100905.19
2019-04-26T19:16:46.390Z,100906.13
2019-04-26T19:19:53.019Z,100903.50
2019-04-26T19:22:46.545Z,100900.56
2019-04-26T19:25:40.893Z,100894.35
2019-04-26T19:28:29.584Z,100906.02
2019-04-26T19:31:23.956Z,100904.94
2019-04-26T19:34:13.272Z,100903.48
2019-04-26T19:37:04.029Z,100897.89
2019-04-26T19:39:54.407Z,100889.06
2019-04-26T19:42:44.815Z,100891.61
2019-04-26T19:45:47.067Z,100895.30
2019-04-26T19:48:56.581Z,100899.62
2019-04-26T19:52:18.288Z,100899.88
2019-04-26T19:55:18.089Z,100892.25
2019-04-26T19:58:16.109Z,100895.33
2019-04-26T20:01:04.313Z,100900.19
2019-04-26T20:03:55.378Z,100901.33
2019-04-26T20:06:48.416Z,100893.98
2019-04-26T20:09:37.676Z,100893.91
2019-04-26T20:12:29.564Z,100895.73
2019-04-26T20:15:26.032Z,100889.20
2019-04-26T20:18:12.216Z,100898.51
2019-04-26T20:21:06.325Z,100893.25
2019-04-26T20:23:56.742Z,100893.34
2019-04-26T20:26:48.680Z,100896.64
2019-04-26T20:29:40.752Z,100895.19
2019-04-26T20:32:34.794Z,100889.23
2019-04-26T20:35:28.103Z,100887.80
2019-04-26T20:38:17.699Z,100882.72
2019-04-26T20:41:08.264Z,100882.40
2019-04-26T20:44:07.430Z,100882.03
2019-04-26T20:46:51.819Z,100885.91
2019-04-26T20:49:49.654Z,100883.53
2019-04-26T20:52:34.181Z,100888.89
2019-04-26T20:55:30.270Z,100892.44
2019-04-26T20:58:16.298Z,100887.50
2019-04-26T21:01:11.739Z,100886.39
2019-04-26T21:04:03.282Z,100884.72
2019-04-26T21:06:53.705Z,100884.72
2019-04-26T21:09:43.790Z,100890.80
2019-04-26T21:12:34.065Z,100885.66
2019-04-26T21:15:24.748Z,100887.65
2019-04-26T21:18:15.224Z,100883.48
2019-04-26T21:21:10.592Z,100880.41
2019-04-26T21:23:57.963Z,100882.20
2019-04-26T21:27:05.847Z,100879.05
2019-04-26T21:30:22.026Z,100878.64
2019-04-26T21:33:35.412Z,100881.98
2019-04-26T21:37:03.427Z,100881.41
2019-04-26T21:40:31.174Z,100881.41
2019-04-26T21:43:21.509Z,100884.80
2019-04-26T21:46:18.653Z,100881.26
2019-04-26T21:49:03.917Z,100880.80
2019-04-26T21:51:54.469Z,100870.86
2019-04-26T21:54:48.399Z,100876.41
2019-04-26T21:57:36.982Z,100885.00
2019-04-26T22:00:45.194Z,100877.01
2019-04-26T22:03:36.791Z,100885.31
2019-04-26T22:06:28.649Z,100878.69
2019-04-26T22:09:45.596Z,100881.05
2019-04-26T22:12:35.449Z,100881.05
2019-04-26T22:15:50.821Z,100878.19
2019-04-26T22:18:56.516Z,100879.76
2019-04-26T22:21:59.373Z,100878.82
2019-04-26T22:24:48.919Z,100870.22
2019-04-26T22:27:39.184Z,100878.46
2019-04-26T22:30:29.727Z,100878.55
2019-04-26T22:33:20.083Z,100875.27
2019-04-26T22:36:10.352Z,100876.55
2019-04-26T22:39:01.785Z,100874.02
2019-04-26T22:41:53.763Z,100860.64
2019-04-26T22:45:09.442Z,100864.98
2019-04-26T22:48:06.722Z,100846.00
2019-04-26T22:50:58.399Z,100846.00
2019-04-26T22:53:49.826Z,100854.13
2019-04-26T22:56:40.042Z,100858.37
2019-04-26T22:59:30.353Z,100856.54
2019-04-26T23:02:25.414Z,100851.77
2019-04-26T23:05:13.619Z,100845.45
2019-04-26T23:08:03.855Z,100848.44
2019-04-26T23:10:55.538Z,100849.29
2019-04-26T23:14:11.500Z,100846.80
2019-04-26T23:17:16.875Z,100837.48
2019-04-26T23:20:29.176Z,100821.43
2019-04-26T23:23:16.998Z,100819.66
2019-04-26T23:26:07.700Z,100818.95
2019-04-26T23:28:58.494Z,100823.28
2019-04-26T23:31:48.529Z,100812.41
2019-04-26T23:34:39.523Z,100808.73
2019-04-26T23:37:29.857Z,100808.85
2019-04-26T23:40:20.614Z,100812.73
2019-04-26T23:43:12.980Z,100807.09
2019-04-26T23:46:03.341Z,100806.75
2019-04-26T23:48:53.819Z,100808.20
2019-04-26T23:51:45.861Z,100810.56
2019-04-26T23:54:36.065Z,100812.30
2019-04-26T23:57:27.496Z,100810.74
